sensor_id;sensor_type;location;lat;lon;timestamp;pressure;altitude;pressure_sealevel;temperature;humidity
70544;BME280;58097;48.364;-1.224;2023-04-30T00:00:13;100060.31;;;13.29;82.61
70544;BME280;58097;48.364;-1.224;2023-04-30T00:02:38;100058.06;;;13.24;82.60
70544;BME280;58097;48.364;-1.224;2023-04-30T00:05:04;100056.50;;;13.14;84.55
70544;BME280;58097;48.364;-1.224;2023-04-30T00:07:29;100055.63;;;13.13;83.27
70544;BME280;58097;48.364;-1.224;2023-04-30T00:09:56;100060.16;;;13.14;83.31
70544;BME280;58097;48.364;-1.224;2023-04-30T00:12:21;100062.91;;;13.14;83.03
70544;BME280;58097;48.364;-1.224;2023-04-30T00:14:47;100063.78;;;13.15;83.10
70544;BME280;58097;48.364;-1.224;2023-04-30T00:17:13;100063.09;;;13.13;83.03
70544;BME280;58097;48.364;-1.224;2023-04-30T00:19:38;100062.22;;;13.12;82.90
70544;BME280;58097;48.364;-1.224;2023-04-30T00:22:04;100075.06;;;13.13;82.82
70544;BME280;58097;48.364;-1.224;2023-04-30T00:24:30;100062.22;;;13.12;82.21
70544;BME280;58097;48.364;-1.224;2023-04-30T00:26:55;100057.72;;;13.11;82.28
70544;BME280;58097;48.364;-1.224;2023-04-30T00:29:21;100059.09;;;13.07;82.09
70544;BME280;58097;48.364;-1.224;2023-04-30T00:31:46;100050.28;;;13.03;82.54
70544;BME280;58097;48.364;-1.224;2023-04-30T00:34:11;100050.28;;;13.03;82.11
70544;BME280;58097;48.364;-1.224;2023-04-30T00:36:37;100051.84;;;13.06;82.07
70544;BME280;58097;48.364;-1.224;2023-04-30T00:39:04;100044.72;;;13.03;82.25
70544;BME280;58097;48.364;-1.224;2023-04-30T00:41:30;100041.41;;;13.00;82.01
70544;BME280;58097;48.364;-1.224;2023-04-30T00:43:56;100044.19;;;13.00;82.33
70544;BME280;58097;48.364;-1.224;2023-04-30T00:46:21;100051.63;;;12.99;82.24
70544;BME280;58097;48.364;-1.224;2023-04-30T00:48:47;100053.53;;;12.99;82.17
70544;BME280;58097;48.364;-1.224;2023-04-30T00:51:13;100044.69;;;12.95;81.84
70544;BME280;58097;48.364;-1.224;2023-04-30T00:53:39;100045.91;;;12.93;81.91
70544;BME280;58097;48.364;-1.224;2023-04-30T00:56:07;100043.16;;;12.93;81.91
70544;BME280;58097;48.364;-1.224;2023-04-30T00:58:34;100039.16;;;12.87;81.47
70544;BME280;58097;48.364;-1.224;2023-04-30T01:01:00;100044.19;;;12.84;81.88
70544;BME280;58097;48.364;-1.224;2023-04-30T01:03:27;100046.28;;;12.82;82.25
70544;BME280;58097;48.364;-1.224;2023-04-30T01:05:52;100040.72;;;12.82;82.08
70544;BME280;58097;48.364;-1.224;2023-04-30T01:08:18;100040.38;;;12.77;81.93
70544;BME280;58097;48.364;-1.224;2023-04-30T01:10:53;100039.53;;;12.76;81.95
70544;BME280;58097;48.364;-1.224;2023-04-30T01:13:26;100045.94;;;12.77;82.19
70544;BME280;58097;48.364;-1.224;2023-04-30T01:15:59;100041.44;;;12.76;82.10
70544;BME280;58097;48.364;-1.224;2023-04-30T01:18:30;100039.69;;;12.75;82.02
70544;BME280;58097;48.364;-1.224;2023-04-30T01:21:03;100040.19;;;12.70;81.77
70544;BME280;58097;48.364;-1.224;2023-04-30T01:26:55;100051.28;;;12.62;81.87
70544;BME280;58097;48.364;-1.224;2023-04-30T01:29:23;100039.66;;;12.58;82.05
70544;BME280;58097;48.364;-1.224;2023-04-30T01:31:51;100035.31;;;12.56;82.23
70544;BME280;58097;48.364;-1.224;2023-04-30T01:34:16;100038.78;;;12.50;81.85
70544;BME280;58097;48.364;-1.224;2023-04-30T01:39:23;100027.34;;;12.45;82.25
70544;BME280;58097;48.364;-1.224;2023-04-30T01:50:19;100030.41;;;12.25;81.43
70544;BME280;58097;48.364;-1.224;2023-04-30T01:52:49;100029.19;;;12.20;81.64
70544;BME280;58097;48.364;-1.224;2023-04-30T01:55:20;100025.72;;;12.18;81.88
70544;BME280;58097;48.364;-1.224;2023-04-30T01:57:53;100028.66;;;12.16;82.61
70544;BME280;58097;48.364;-1.224;2023-04-30T02:00:20;100028.09;;;12.13;82.98
70544;BME280;58097;48.364;-1.224;2023-04-30T02:02:45;100021.88;;;12.10;83.57
70544;BME280;58097;48.364;-1.224;2023-04-30T02:05:11;100026.00;;;12.06;83.42
70544;BME280;58097;48.364;-1.224;2023-04-30T02:07:40;100021.34;;;12.07;83.91
70544;BME280;58097;48.364;-1.224;2023-04-30T02:10:07;100019.28;;;12.09;83.42
70544;BME280;58097;48.364;-1.224;2023-04-30T02:12:32;100023.59;;;12.12;83.80
70544;BME280;58097;48.364;-1.224;2023-04-30T02:14:58;100025.91;;;12.16;84.03
70544;BME280;58097;48.364;-1.224;2023-04-30T02:17:23;100026.94;;;12.15;83.83
70544;BME280;58097;48.364;-1.224;2023-04-30T02:19:48;100026.75;;;12.17;84.81
70544;BME280;58097;48.364;-1.224;2023-04-30T02:22:14;100025.03;;;12.16;84.05
70544;BME280;58097;48.364;-1.224;2023-04-30T02:24:39;100019.31;;;12.17;85.03
70544;BME280;58097;48.364;-1.224;2023-04-30T02:27:04;100019.31;;;12.17;85.74
70544;BME280;58097;48.364;-1.224;2023-04-30T02:29:30;100025.03;;;12.24;85.22
70544;BME280;58097;48.364;-1.224;2023-04-30T02:31:58;100024.88;;;12.25;85.60
70544;BME280;58097;48.364;-1.224;2023-04-30T02:34:24;100034.06;;;12.26;85.88
70544;BME280;58097;48.364;-1.224;2023-04-30T02:36:49;100028.16;;;12.21;86.31
70544;BME280;58097;48.364;-1.224;2023-04-30T02:39:14;100032.16;;;12.26;85.72
70544;BME280;58097;48.364;-1.224;2023-04-30T02:41:40;100028.16;;;12.29;85.75
70544;BME280;58097;48.364;-1.224;2023-04-30T02:44:05;100030.75;;;12.30;85.83
70544;BME280;58097;48.364;-1.224;2023-04-30T02:46:30;100039.59;;;12.34;85.51
70544;BME280;58097;48.364;-1.224;2023-04-30T02:48:56;100029.38;;;12.34;85.99
70544;BME280;58097;48.364;-1.224;2023-04-30T02:51:21;100034.75;;;12.36;85.41
70544;BME280;58097;48.364;-1.224;2023-04-30T02:53:46;100026.59;;;12.26;86.31
70544;BME280;58097;48.364;-1.224;2023-04-30T02:56:12;100035.28;;;12.31;85.70
70544;BME280;58097;48.364;-1.224;2023-04-30T02:58:37;100036.31;;;12.30;85.71
70544;BME280;58097;48.364;-1.224;2023-04-30T03:01:02;100036.66;;;12.27;85.58
70544;BME280;58097;48.364;-1.224;2023-04-30T03:03:28;100036.47;;;12.29;85.31
70544;BME280;58097;48.364;-1.224;2023-04-30T03:05:53;100031.09;;;12.27;86.03
70544;BME280;58097;48.364;-1.224;2023-04-30T03:08:20;100029.91;;;12.30;85.51
70544;BME280;58097;48.364;-1.224;2023-04-30T03:10:46;100027.63;;;12.25;86.50
70544;BME280;58097;48.364;-1.224;2023-04-30T03:13:11;100033.53;;;12.22;86.00
70544;BME280;58097;48.364;-1.224;2023-04-30T03:15:37;100028.84;;;12.23;85.88
70544;BME280;58097;48.364;-1.224;2023-04-30T03:18:03;100027.13;;;12.22;85.91
70544;BME280;58097;48.364;-1.224;2023-04-30T03:20:28;100033.34;;;12.24;85.23
70544;BME280;58097;48.364;-1.224;2023-04-30T03:22:53;100030.59;;;12.24;85.57
70544;BME280;58097;48.364;-1.224;2023-04-30T03:25:19;100034.56;;;12.21;85.83
70544;BME280;58097;48.364;-1.224;2023-04-30T03:27:44;100031.78;;;12.21;85.69
70544;BME280;58097;48.364;-1.224;2023-04-30T03:30:10;100039.75;;;12.24;85.08
70544;BME280;58097;48.364;-1.224;2023-04-30T03:32:35;100038.53;;;12.19;85.68
70544;BME280;58097;48.364;-1.224;2023-04-30T03:35:00;100039.41;;;12.19;85.15
70544;BME280;58097;48.364;-1.224;2023-04-30T03:37:26;100041.47;;;12.17;85.65
70544;BME280;58097;48.364;-1.224;2023-04-30T03:39:51;100034.22;;;12.16;85.59
70544;BME280;58097;48.364;-1.224;2023-04-30T03:42:16;100032.78;;;12.12;85.66
70544;BME280;58097;48.364;-1.224;2023-04-30T03:44:41;100036.59;;;12.11;85.14
70544;BME280;58097;48.364;-1.224;2023-04-30T03:47:07;100034.00;;;12.09;85.40
70544;BME280;58097;48.364;-1.224;2023-04-30T03:49:32;100036.56;;;12.03;85.30
70544;BME280;58097;48.364;-1.224;2023-04-30T03:51:58;100043.31;;;12.00;85.14
70544;BME280;58097;48.364;-1.224;2023-04-30T03:54:23;100043.31;;;12.00;84.82
70544;BME280;58097;48.364;-1.224;2023-04-30T03:56:48;100036.22;;;11.98;84.82
70544;BME280;58097;48.364;-1.224;2023-04-30T03:59:14;100041.38;;;11.93;85.10
70544;BME280;58097;48.364;-1.224;2023-04-30T04:01:39;100044.84;;;11.87;85.24
70544;BME280;58097;48.364;-1.224;2023-04-30T04:04:05;100046.34;;;11.81;85.78
70544;BME280;58097;48.364;-1.224;2023-04-30T04:06:31;100047.38;;;11.80;85.99
70544;BME280;58097;48.364;-1.224;2023-04-30T04:08:56;100051.31;;;11.77;85.92
70544;BME280;58097;48.364;-1.224;2023-04-30T04:11:21;100044.53;;;11.72;85.98
70544;BME280;58097;48.364;-1.224;2023-04-30T04:13:47;100047.47;;;11.70;85.31
70544;BME280;58097;48.364;-1.224;2023-04-30T04:16:12;100045.03;;;11.67;86.30
70544;BME280;58097;48.364;-1.224;2023-04-30T04:18:37;100047.97;;;11.66;86.13
70544;BME280;58097;48.364;-1.224;2023-04-30T04:21:03;100048.84;;;11.66;85.99
70544;BME280;58097;48.364;-1.224;2023-04-30T04:23:28;100049.34;;;11.62;85.94
70544;BME280;58097;48.364;-1.224;2023-04-30T04:25:53;100041.66;;;11.56;86.36
70544;BME280;58097;48.364;-1.224;2023-04-30T04:28:19;100043.44;;;11.57;85.99
70544;BME280;58097;48.364;-1.224;2023-04-30T04:30:45;100039.63;;;11.58;85.75
70544;BME280;58097;48.364;-1.224;2023-04-30T04:33:10;100047.94;;;11.58;85.78
70544;BME280;58097;48.364;-1.224;2023-04-30T04:35:36;100049.28;;;11.54;85.40
70544;BME280;58097;48.364;-1.224;2023-04-30T04:38:02;100048.97;;;11.57;85.33
70544;BME280;58097;48.364;-1.224;2023-04-30T04:40:28;100054.19;;;11.60;85.16
70544;BME280;58097;48.364;-1.224;2023-04-30T04:42:54;100053.31;;;11.59;85.13
70544;BME280;58097;48.364;-1.224;2023-04-30T04:45:19;100058.84;;;11.59;84.89
70544;BME280;58097;48.364;-1.224;2023-04-30T04:47:45;100055.38;;;11.57;85.70
70544;BME280;58097;48.364;-1.224;2023-04-30T04:50:11;100057.19;;;11.48;85.80
70544;BME280;58097;48.364;-1.224;2023-04-30T04:52:37;100055.78;;;11.44;85.85
70544;BME280;58097;48.364;-1.224;2023-04-30T04:55:03;100062.91;;;11.47;85.98
70544;BME280;58097;48.364;-1.224;2023-04-30T04:57:29;100050.25;;;11.44;85.72
70544;BME280;58097;48.364;-1.224;2023-04-30T04:59:54;100063.56;;;11.41;85.88
70544;BME280;58097;48.364;-1.224;2023-04-30T05:02:20;100057.00;;;11.42;85.91
70544;BME280;58097;48.364;-1.224;2023-04-30T05:04:47;100056.28;;;11.40;85.57
70544;BME280;58097;48.364;-1.224;2023-04-30T05:07:15;100050.59;;;11.41;85.42
70544;BME280;58097;48.364;-1.224;2023-04-30T05:09:40;100049.88;;;11.39;85.90
70544;BME280;58097;48.364;-1.224;2023-04-30T05:12:06;100055.97;;;11.43;85.76
70544;BME280;58097;48.364;-1.224;2023-04-30T05:14:31;100055.75;;;11.36;85.82
70544;BME280;58097;48.364;-1.224;2023-04-30T05:16:57;100054.03;;;11.35;86.56
70544;BME280;58097;48.364;-1.224;2023-04-30T05:19:22;100052.13;;;11.36;86.31
70544;BME280;58097;48.364;-1.224;2023-04-30T05:21:47;100052.28;;;11.34;86.57
70544;BME280;58097;48.364;-1.224;2023-04-30T05:24:13;100051.75;;;11.31;86.69
70544;BME280;58097;48.364;-1.224;2023-04-30T05:26:38;100054.84;;;11.28;86.80
70544;BME280;58097;48.364;-1.224;2023-04-30T05:29:03;100056.25;;;11.32;85.96
70544;BME280;58097;48.364;-1.224;2023-04-30T05:31:28;100052.13;;;11.36;85.98
70544;BME280;58097;48.364;-1.224;2023-04-30T05:33:56;100051.59;;;11.32;86.46
70544;BME280;58097;48.364;-1.224;2023-04-30T05:36:21;100054.19;;;11.34;86.10
70544;BME280;58097;48.364;-1.224;2023-04-30T05:38:47;100050.19;;;11.28;87.16
70544;BME280;58097;48.364;-1.224;2023-04-30T05:41:12;100053.94;;;11.27;86.88
70544;BME280;58097;48.364;-1.224;2023-04-30T05:43:37;100050.22;;;11.36;86.53
70544;BME280;58097;48.364;-1.224;2023-04-30T05:46:03;100054.41;;;11.40;87.05
70544;BME280;58097;48.364;-1.224;2023-04-30T05:48:29;100059.94;;;11.40;86.97
70544;BME280;58097;48.364;-1.224;2023-04-30T05:50:55;100062.03;;;11.46;86.28
70544;BME280;58097;48.364;-1.224;2023-04-30T05:53:20;100062.38;;;11.43;87.37
70544;BME280;58097;48.364;-1.224;2023-04-30T05:55:45;100059.81;;;11.50;86.50
70544;BME280;58097;48.364;-1.224;2023-04-30T05:58:11;100060.19;;;11.55;86.82
70544;BME280;58097;48.364;-1.224;2023-04-30T06:00:36;100061.13;;;11.64;86.57
70544;BME280;58097;48.364;-1.224;2023-04-30T06:03:03;100069.03;;;11.59;86.79
70544;BME280;58097;48.364;-1.224;2023-04-30T06:05:28;100070.44;;;11.63;86.89
70544;BME280;58097;48.364;-1.224;2023-04-30T06:07:54;100068.06;;;11.68;86.64
70544;BME280;58097;48.364;-1.224;2023-04-30T06:10:19;100064.25;;;11.69;87.17
70544;BME280;58097;48.364;-1.224;2023-04-30T06:12:45;100069.13;;;11.75;86.49
70544;BME280;58097;48.364;-1.224;2023-04-30T06:15:10;100071.69;;;11.68;87.16
70544;BME280;58097;48.364;-1.224;2023-04-30T06:17:35;100076.09;;;11.79;86.86
70544;BME280;58097;48.364;-1.224;2023-04-30T06:20:01;100079.56;;;11.81;86.77
70544;BME280;58097;48.364;-1.224;2023-04-30T06:22:31;100076.47;;;11.84;86.72
70544;BME280;58097;48.364;-1.224;2023-04-30T06:24:56;100088.31;;;11.94;86.58
70544;BME280;58097;48.364;-1.224;2023-04-30T06:27:22;100093.53;;;12.05;86.35
70544;BME280;58097;48.364;-1.224;2023-04-30T06:29:47;100089.03;;;12.04;86.44
70544;BME280;58097;48.364;-1.224;2023-04-30T06:32:13;100089.38;;;12.09;85.77
70544;BME280;58097;48.364;-1.224;2023-04-30T06:34:38;100081.19;;;11.92;85.87
70544;BME280;58097;48.364;-1.224;2023-04-30T06:37:03;100086.41;;;11.95;86.01
70544;BME280;58097;48.364;-1.224;2023-04-30T06:39:29;100092.13;;;12.01;85.66
70544;BME280;58097;48.364;-1.224;2023-04-30T06:41:54;100085.69;;;11.93;85.42
70544;BME280;58097;48.364;-1.224;2023-04-30T06:44:20;100086.41;;;11.95;85.40
70544;BME280;58097;48.364;-1.224;2023-04-30T06:46:45;100091.44;;;11.99;85.31
70544;BME280;58097;48.364;-1.224;2023-04-30T06:49:10;100089.53;;;12.00;85.27
70544;BME280;58097;48.364;-1.224;2023-04-30T06:51:36;100091.44;;;11.99;85.23
70544;BME280;58097;48.364;-1.224;2023-04-30T06:54:01;100090.59;;;12.07;85.28
70544;BME280;58097;48.364;-1.224;2023-04-30T06:56:26;100091.59;;;11.98;85.02
70544;BME280;58097;48.364;-1.224;2023-04-30T06:58:52;100094.41;;;12.06;85.04
70544;BME280;58097;48.364;-1.224;2023-04-30T07:01:17;100099.94;;;12.06;85.13
70544;BME280;58097;48.364;-1.224;2023-04-30T07:03:43;100094.94;;;12.09;85.07
70544;BME280;58097;48.364;-1.224;2023-04-30T07:06:08;100091.19;;;12.19;85.09
70544;BME280;58097;48.364;-1.224;2023-04-30T07:08:33;100092.25;;;12.26;85.10
70544;BME280;58097;48.364;-1.224;2023-04-30T07:10:59;100093.97;;;12.27;84.78
70544;BME280;58097;48.364;-1.224;2023-04-30T07:13:24;100089.81;;;12.31;84.99
70544;BME280;58097;48.364;-1.224;2023-04-30T07:15:50;100094.84;;;12.27;84.87
70544;BME280;58097;48.364;-1.224;2023-04-30T07:18:15;100089.47;;;12.26;84.81
70544;BME280;58097;48.364;-1.224;2023-04-30T07:20:41;100095.19;;;12.32;84.74
70544;BME280;58097;48.364;-1.224;2023-04-30T07:23:06;100097.69;;;12.44;84.81
70544;BME280;58097;48.364;-1.224;2023-04-30T07:25:32;100097.34;;;12.55;84.57
70544;BME280;58097;48.364;-1.224;2023-04-30T07:27:58;100098.22;;;12.63;84.76
70544;BME280;58097;48.364;-1.224;2023-04-30T07:30:24;100099.25;;;12.54;84.21
70544;BME280;58097;48.364;-1.224;2023-04-30T07:32:49;100101.34;;;12.52;83.78
70544;BME280;58097;48.364;-1.224;2023-04-30T07:35:14;100095.78;;;12.52;84.04
70544;BME280;58097;48.364;-1.224;2023-04-30T07:37:40;100106.88;;;12.60;84.27
70544;BME280;58097;48.364;-1.224;2023-04-30T07:40:08;100106.88;;;12.60;84.25
70544;BME280;58097;48.364;-1.224;2023-04-30T07:42:39;100107.75;;;12.61;83.74
70544;BME280;58097;48.364;-1.224;2023-04-30T07:45:05;100118.34;;;12.65;83.97
70544;BME280;58097;48.364;-1.224;2023-04-30T07:47:31;100112.66;;;12.75;84.00
70544;BME280;58097;48.364;-1.224;2023-04-30T07:49:57;100112.66;;;12.83;84.12
70544;BME280;58097;48.364;-1.224;2023-04-30T07:52:22;100114.75;;;12.89;84.23
70544;BME280;58097;48.364;-1.224;2023-04-30T07:54:47;100109.88;;;12.99;84.02
70544;BME280;58097;48.364;-1.224;2023-04-30T07:57:13;100103.16;;;13.02;84.04
70544;BME280;58097;48.364;-1.224;2023-04-30T07:59:38;100108.34;;;13.13;83.98
70544;BME280;58097;48.364;-1.224;2023-04-30T08:02:03;100111.50;;;13.18;83.89
70544;BME280;58097;48.364;-1.224;2023-04-30T08:04:29;100107.16;;;13.08;83.65
70544;BME280;58097;48.364;-1.224;2023-04-30T08:06:54;100105.25;;;13.24;84.06
70544;BME280;58097;48.364;-1.224;2023-04-30T08:09:20;100107.00;;;13.33;83.69
70544;BME280;58097;48.364;-1.224;2023-04-30T08:11:45;100112.69;;;13.48;83.97
70544;BME280;58097;48.364;-1.224;2023-04-30T08:14:10;100109.41;;;13.61;84.02
70544;BME280;58097;48.364;-1.224;2023-04-30T08:16:36;100109.72;;;13.58;82.56
70544;BME280;58097;48.364;-1.224;2023-04-30T08:19:01;100117.72;;;13.53;82.70
70544;BME280;58097;48.364;-1.224;2023-04-30T08:21:28;100121.72;;;13.58;82.98
70544;BME280;58097;48.364;-1.224;2023-04-30T08:23:54;100112.53;;;13.66;83.16
70544;BME280;58097;48.364;-1.224;2023-04-30T08:26:19;100112.16;;;13.69;82.96
70544;BME280;58097;48.364;-1.224;2023-04-30T08:28:45;100114.19;;;13.83;82.98
70544;BME280;58097;48.364;-1.224;2023-04-30T08:31:11;100112.22;;;14.08;83.84
70544;BME280;58097;48.364;-1.224;2023-04-30T08:33:36;100102.69;;;14.42;83.71
70544;BME280;58097;48.364;-1.224;2023-04-30T08:36:02;100111.63;;;14.68;83.32
70544;BME280;58097;48.364;-1.224;2023-04-30T08:38:27;100103.50;;;14.90;82.48
70544;BME280;58097;48.364;-1.224;2023-04-30T08:41:07;100112.47;;;15.00;80.38
70544;BME280;58097;48.364;-1.224;2023-04-30T08:43:33;100108.13;;;15.20;80.41
70544;BME280;58097;48.364;-1.224;2023-04-30T08:45:59;100109.63;;;15.08;80.42
70544;BME280;58097;48.364;-1.224;2023-04-30T08:48:26;100110.50;;;15.08;78.37
70544;BME280;58097;48.364;-1.224;2023-04-30T08:50:52;100105.78;;;14.86;79.03
70544;BME280;58097;48.364;-1.224;2023-04-30T08:53:18;100109.31;;;15.03;80.31
70544;BME280;58097;48.364;-1.224;2023-04-30T08:55:46;100109.97;;;15.28;80.41
70544;BME280;58097;48.364;-1.224;2023-04-30T08:58:11;100104.66;;;15.41;80.59
70544;BME280;58097;48.364;-1.224;2023-04-30T09:00:37;100101.34;;;15.60;79.69
70544;BME280;58097;48.364;-1.224;2023-04-30T09:03:04;100104.28;;;15.82;80.88
70544;BME280;58097;48.364;-1.224;2023-04-30T09:05:30;100099.22;;;16.00;80.89
70544;BME280;58097;48.364;-1.224;2023-04-30T09:07:55;100102.84;;;16.15;80.22
70544;BME280;58097;48.364;-1.224;2023-04-30T09:10:21;100103.84;;;16.22;78.58
70544;BME280;58097;48.364;-1.224;2023-04-30T09:13:01;100107.88;;;16.20;76.82
70544;BME280;58097;48.364;-1.224;2023-04-30T09:15:27;100105.44;;;16.17;78.40
70544;BME280;58097;48.364;-1.224;2023-04-30T09:18:09;100111.69;;;16.33;79.61
70544;BME280;58097;48.364;-1.224;2023-04-30T09:20:36;100111.19;;;16.59;79.92
70544;BME280;58097;48.364;-1.224;2023-04-30T09:23:07;100109.75;;;16.78;79.75
70544;BME280;58097;48.364;-1.224;2023-04-30T09:25:40;100105.97;;;16.86;77.49
70544;BME280;58097;48.364;-1.224;2023-04-30T09:28:07;100107.63;;;16.80;78.38
70544;BME280;58097;48.364;-1.224;2023-04-30T09:30:32;100108.88;;;16.78;78.65
70544;BME280;58097;48.364;-1.224;2023-04-30T09:32:58;100105.16;;;16.92;80.21
70544;BME280;58097;48.364;-1.224;2023-04-30T09:35:30;100106.97;;;17.21;79.93
70544;BME280;58097;48.364;-1.224;2023-04-30T09:37:58;100106.16;;;17.27;79.81
70544;BME280;58097;48.364;-1.224;2023-04-30T09:40:38;100099.19;;;17.38;80.00
70544;BME280;58097;48.364;-1.224;2023-04-30T09:43:05;100100.78;;;17.47;78.72
70544;BME280;58097;48.364;-1.224;2023-04-30T09:45:40;100092.50;;;17.60;77.33
70544;BME280;58097;48.364;-1.224;2023-04-30T09:48:08;100091.88;;;17.86;78.52
70544;BME280;58097;48.364;-1.224;2023-04-30T09:50:38;100088.78;;;18.02;77.42
70544;BME280;58097;48.364;-1.224;2023-04-30T09:53:08;100095.50;;;18.14;77.04
70544;BME280;58097;48.364;-1.224;2023-04-30T09:55:35;100095.19;;;18.31;76.58
70544;BME280;58097;48.364;-1.224;2023-04-30T09:58:04;100094.94;;;18.25;73.74
70544;BME280;58097;48.364;-1.224;2023-04-30T10:00:34;100093.25;;;18.31;76.53
70544;BME280;58097;48.364;-1.224;2023-04-30T10:03:05;100093.75;;;18.48;75.71
70544;BME280;58097;48.364;-1.224;2023-04-30T10:05:35;100096.38;;;18.56;73.40
70544;BME280;58097;48.364;-1.224;2023-04-30T10:08:02;100094.28;;;18.23;71.84
70544;BME280;58097;48.364;-1.224;2023-04-30T10:10:30;100091.78;;;18.42;75.80
70544;BME280;58097;48.364;-1.224;2023-04-30T10:13:02;100082.09;;;18.38;73.49
70544;BME280;58097;48.364;-1.224;2023-04-30T10:15:35;100077.81;;;18.07;72.57
70544;BME280;58097;48.364;-1.224;2023-04-30T10:18:12;100082.28;;;17.95;73.59
70544;BME280;58097;48.364;-1.224;2023-04-30T10:20:39;100082.94;;;17.97;73.42
70544;BME280;58097;48.364;-1.224;2023-04-30T10:23:05;100083.84;;;18.04;74.68
70544;BME280;58097;48.364;-1.224;2023-04-30T10:25:32;100082.63;;;18.20;74.59
70544;BME280;58097;48.364;-1.224;2023-04-30T10:27:58;100090.88;;;18.28;76.26
70544;BME280;58097;48.364;-1.224;2023-04-30T10:30:24;100086.56;;;18.32;74.72
70544;BME280;58097;48.364;-1.224;2023-04-30T10:33:17;100090.03;;;18.34;75.77
70544;BME280;58097;48.364;-1.224;2023-04-30T10:35:48;100089.16;;;18.34;75.20
70544;BME280;58097;48.364;-1.224;2023-04-30T10:38:21;100088.50;;;18.32;76.00
70544;BME280;58097;48.364;-1.224;2023-04-30T10:40:47;100090.66;;;18.30;75.38
70544;BME280;58097;48.364;-1.224;2023-04-30T10:43:12;100082.69;;;18.26;76.26
70544;BME280;58097;48.364;-1.224;2023-04-30T10:45:41;100083.75;;;18.25;75.37
70544;BME280;58097;48.364;-1.224;2023-04-30T10:48:08;100082.22;;;18.23;74.85
70544;BME280;58097;48.364;-1.224;2023-04-30T10:50:40;100089.13;;;18.27;75.44
70544;BME280;58097;48.364;-1.224;2023-04-30T10:53:06;100087.41;;;18.26;76.20
70544;BME280;58097;48.364;-1.224;2023-04-30T10:55:32;100090.44;;;18.31;76.36
70544;BME280;58097;48.364;-1.224;2023-04-30T10:57:58;100085.75;;;18.38;75.91
70544;BME280;58097;48.364;-1.224;2023-04-30T11:00:25;100081.00;;;18.39;76.58
70544;BME280;58097;48.364;-1.224;2023-04-30T11:02:56;100081.44;;;18.42;75.06
70544;BME280;58097;48.364;-1.224;2023-04-30T11:05:33;100075.00;;;18.48;75.59
70544;BME280;58097;48.364;-1.224;2023-04-30T11:07:59;100073.06;;;18.49;75.75
70544;BME280;58097;48.364;-1.224;2023-04-30T11:10:26;100070.97;;;18.51;75.76
70544;BME280;58097;48.364;-1.224;2023-04-30T11:12:54;100075.28;;;18.60;75.68
70544;BME280;58097;48.364;-1.224;2023-04-30T11:15:23;100063.88;;;18.62;75.34
70544;BME280;58097;48.364;-1.224;2023-04-30T11:17:49;100069.03;;;18.58;75.21
70544;BME280;58097;48.364;-1.224;2023-04-30T11:20:19;100065.38;;;18.57;76.01
70544;BME280;58097;48.364;-1.224;2023-04-30T11:22:45;100062.34;;;18.52;75.92
70544;BME280;58097;48.364;-1.224;2023-04-30T11:25:11;100065.53;;;18.43;76.14
70544;BME280;58097;48.364;-1.224;2023-04-30T11:27:40;100062.50;;;18.38;76.55
70544;BME280;58097;48.364;-1.224;2023-04-30T11:30:10;100065.91;;;18.26;76.88
70544;BME280;58097;48.364;-1.224;2023-04-30T11:32:37;100064.53;;;18.16;77.04
70544;BME280;58097;48.364;-1.224;2023-04-30T11:35:04;100065.53;;;18.02;77.28
70544;BME280;58097;48.364;-1.224;2023-04-30T11:37:31;100058.56;;;17.91;77.60
70544;BME280;58097;48.364;-1.224;2023-04-30T11:40:07;100061.94;;;17.80;77.93
70544;BME280;58097;48.364;-1.224;2023-04-30T11:42:35;100059.72;;;17.69;78.56
70544;BME280;58097;48.364;-1.224;2023-04-30T11:45:11;100055.50;;;17.58;78.33
70544;BME280;58097;48.364;-1.224;2023-04-30T11:47:48;100054.16;;;17.47;79.03
70544;BME280;58097;48.364;-1.224;2023-04-30T11:50:19;100058.81;;;17.40;79.14
70544;BME280;58097;48.364;-1.224;2023-04-30T11:52:49;100064.31;;;17.33;80.41
70544;BME280;58097;48.364;-1.224;2023-04-30T11:55:20;100063.81;;;17.23;79.79
70544;BME280;58097;48.364;-1.224;2023-04-30T11:57:47;100060.75;;;17.18;80.44
70544;BME280;58097;48.364;-1.224;2023-04-30T12:00:18;100061.78;;;17.11;80.03
70544;BME280;58097;48.364;-1.224;2023-04-30T12:02:46;100057.25;;;17.10;81.27
70544;BME280;58097;48.364;-1.224;2023-04-30T12:05:24;100070.91;;;17.04;81.04
70544;BME280;58097;48.364;-1.224;2023-04-30T12:07:53;100058.69;;;17.06;81.23
70544;BME280;58097;48.364;-1.224;2023-04-30T12:10:20;100068.41;;;17.10;82.29
70544;BME280;58097;48.364;-1.224;2023-04-30T12:12:47;100056.38;;;17.09;81.82
70544;BME280;58097;48.364;-1.224;2023-04-30T12:15:18;100059.44;;;17.14;81.54
70544;BME280;58097;48.364;-1.224;2023-04-30T12:17:45;100060.75;;;17.18;81.80
70544;BME280;58097;48.364;-1.224;2023-04-30T12:20:12;100064.28;;;17.27;82.45
70544;BME280;58097;48.364;-1.224;2023-04-30T12:22:39;100060.09;;;17.38;82.57
70544;BME280;58097;48.364;-1.224;2023-04-30T12:25:17;100062.53;;;17.47;81.79
70544;BME280;58097;48.364;-1.224;2023-04-30T12:27:47;100051.19;;;17.55;81.96
70544;BME280;58097;48.364;-1.224;2023-04-30T12:30:13;100046.91;;;17.59;81.71
70544;BME280;58097;48.364;-1.224;2023-04-30T12:32:40;100050.28;;;17.70;81.91
70544;BME280;58097;48.364;-1.224;2023-04-30T12:35:06;100048.00;;;17.86;81.26
70544;BME280;58097;48.364;-1.224;2023-04-30T12:37:32;100049.59;;;17.95;81.02
70544;BME280;58097;48.364;-1.224;2023-04-30T12:39:58;100051.13;;;18.05;80.77
70544;BME280;58097;48.364;-1.224;2023-04-30T12:42:24;100054.59;;;18.07;79.16
70544;BME280;58097;48.364;-1.224;2023-04-30T12:44:50;100053.53;;;18.08;79.73
70544;BME280;58097;48.364;-1.224;2023-04-30T12:47:15;100051.19;;;18.18;79.33
70544;BME280;58097;48.364;-1.224;2023-04-30T12:49:44;100048.19;;;18.19;77.15
70544;BME280;58097;48.364;-1.224;2023-04-30T12:52:11;100046.09;;;18.21;77.98